sensor_id;sensor_type;location;lat;lon;timestamp;pressure;altitude;pressure_sealevel;temperature;humidity
23616;BME280;11985;49.404;7.734;2023-01-25T00:04:47;98946.53;;;-0.49;100.00
23616;BME280;11985;49.404;7.734;2023-01-25T00:09:50;98944.28;;;-0.56;100.00
23616;BME280;11985;49.404;7.734;2023-01-25T00:14:52;98942.47;;;-0.54;100.00
23616;BME280;11985;49.404;7.734;2023-01-25T00:19:53;98941.63;;;-0.54;100.00
23616;BME280;11985;49.404;7.734;2023-01-25T00:24:56;98937.28;;;-0.54;100.00
23616;BME280;11985;49.404;7.734;2023-01-25T00:29:58;98930.63;;;-0.58;100.00
23616;BME280;11985;49.404;7.734;2023-01-25T00:34:59;98934.31;;;-0.62;100.00
23616;BME280;11985;49.404;7.734;2023-01-25T00:40:03;98922.53;;;-0.66;100.00
23616;BME280;11985;49.404;7.734;2023-01-25T00:45:05;98917.72;;;-0.72;100.00
23616;BME280;11985;49.404;7.734;2023-01-25T00:50:08;98910.78;;;-0.71;100.00
23616;BME280;11985;49.404;7.734;2023-01-25T00:55:11;98912.91;;;-0.78;100.00
23616;BME280;11985;49.404;7.734;2023-01-25T01:00:14;98902.75;;;-0.81;100.00
23616;BME280;11985;49.404;7.734;2023-01-25T01:05:15;98898.59;;;-0.84;100.00
23616;BME280;11985;49.404;7.734;2023-01-25T01:10:18;98894.28;;;-0.83;100.00
23616;BME280;11985;49.404;7.734;2023-01-25T01:15:20;98890.75;;;-0.82;100.00
23616;BME280;11985;49.404;7.734;2023-01-25T01:20:22;98888.22;;;-0.84;100.00
23616;BME280;11985;49.404;7.734;2023-01-25T01:25:24;98893.13;;;-0.79;100.00
23616;BME280;11985;49.404;7.734;2023-01-25T01:30:26;98888.88;;;-0.80;100.00
23616;BME280;11985;49.404;7.734;2023-01-25T01:35:28;98896.75;;;-0.82;100.00
23616;BME280;11985;49.404;7.734;2023-01-25T01:40:30;98894.28;;;-0.83;100.00
23616;BME280;11985;49.404;7.734;2023-01-25T01:45:50;98894.28;;;-0.83;100.00
23616;BME280;11985;49.404;7.734;2023-01-25T01:50:56;98889.91;;;-0.83;100.00
23616;BME280;11985;49.404;7.734;2023-01-25T01:56:02;98890.94;;;-0.85;100.00
23616;BME280;11985;49.404;7.734;2023-01-25T02:01:07;98886.69;;;-0.86;100.00
23616;BME280;11985;49.404;7.734;2023-01-25T02:06:12;98870.06;;;-0.82;100.00
23616;BME280;11985;49.404;7.734;2023-01-25T02:11:15;98868.41;;;-0.83;100.00
23616;BME280;11985;49.404;7.734;2023-01-25T02:16:21;98863.41;;;-0.86;100.00
23616;BME280;11985;49.404;7.734;2023-01-25T02:21:24;98863.41;;;-0.86;100.00
23616;BME280;11985;49.404;7.734;2023-01-25T02:26:27;98852.78;;;-0.82;100.00
23616;BME280;11985;49.404;7.734;2023-01-25T02:31:29;98854.53;;;-0.82;100.00
23616;BME280;11985;49.404;7.734;2023-01-25T02:36:32;98857.94;;;-0.82;100.00
23616;BME280;11985;49.404;7.734;2023-01-25T02:41:37;98856.84;;;-0.77;100.00
23616;BME280;11985;49.404;7.734;2023-01-25T02:46:39;98862.19;;;-0.81;100.00
23616;BME280;11985;49.404;7.734;2023-01-25T02:51:43;98863.03;;;-0.80;100.00
23616;BME280;11985;49.404;7.734;2023-01-25T02:56:47;98856.38;;;-0.84;100.00
23616;BME280;11985;49.404;7.734;2023-01-25T03:01:49;98855.63;;;-0.86;100.00
23616;BME280;11985;49.404;7.734;2023-01-25T03:06:50;98853.88;;;-0.86;100.00
23616;BME280;11985;49.404;7.734;2023-01-25T03:11:54;98852.13;;;-0.85;100.00
23616;BME280;11985;49.404;7.734;2023-01-25T03:16:55;98846.03;;;-0.84;100.00
23616;BME280;11985;49.404;7.734;2023-01-25T03:21:57;98848.53;;;-0.83;100.00
23616;BME280;11985;49.404;7.734;2023-01-25T03:27:00;98833.84;;;-0.82;100.00
23616;BME280;11985;49.404;7.734;2023-01-25T03:32:12;98842.53;;;-0.83;100.00
23616;BME280;11985;49.404;7.734;2023-01-25T03:37:14;98835.88;;;-0.87;100.00
23616;BME280;11985;49.404;7.734;2023-01-25T03:42:18;98838.56;;;-0.89;100.00
23616;BME280;11985;49.404;7.734;2023-01-25T03:47:20;98829.06;;;-0.88;100.00
23616;BME280;11985;49.404;7.734;2023-01-25T03:52:21;98832.19;;;-0.83;100.00
23616;BME280;11985;49.404;7.734;2023-01-25T03:57:27;98828.00;;;-0.86;100.00
23616;BME280;11985;49.404;7.734;2023-01-25T04:02:28;98823.88;;;-0.88;100.00
23616;BME280;11985;49.404;7.734;2023-01-25T04:07:30;98814.97;;;-0.84;100.00
23616;BME280;11985;49.404;7.734;2023-01-25T04:12:34;98829.88;;;-0.88;100.00
23616;BME280;11985;49.404;7.734;2023-01-25T04:17:36;98826.63;;;-0.91;100.00
23616;BME280;11985;49.404;7.734;2023-01-25T04:22:37;98819.81;;;-0.92;100.00
23616;BME280;11985;49.404;7.734;2023-01-25T04:27:40;98819.53;;;-0.88;100.00
23616;BME280;11985;49.404;7.734;2023-01-25T04:32:42;98814.34;;;-0.88;100.00
23616;BME280;11985;49.404;7.734;2023-01-25T04:37:43;98810.19;;;-0.90;100.00
23616;BME280;11985;49.404;7.734;2023-01-25T04:42:46;98811.84;;;-0.89;100.00
23616;BME280;11985;49.404;7.734;2023-01-25T04:47:48;98807.44;;;-0.87;100.00
23616;BME280;11985;49.404;7.734;2023-01-25T04:52:50;98807.13;;;-0.83;100.00
23616;BME280;11985;49.404;7.734;2023-01-25T04:57:52;98808.13;;;-0.71;100.00
23616;BME280;11985;49.404;7.734;2023-01-25T05:02:54;98810.09;;;-0.62;100.00
23616;BME280;11985;49.404;7.734;2023-01-25T05:07:56;98799.56;;;-0.59;100.00
23616;BME280;11985;49.404;7.734;2023-01-25T05:12:59;98795.22;;;-0.58;100.00
23616;BME280;11985;49.404;7.734;2023-01-25T05:18:02;98804.53;;;-0.56;100.00
23616;BME280;11985;49.404;7.734;2023-01-25T05:23:04;98795.38;;;-0.47;100.00
23616;BME280;11985;49.404;7.734;2023-01-25T05:28:07;98785.44;;;-0.40;100.00
23616;BME280;11985;49.404;7.734;2023-01-25T05:33:08;98789.50;;;-0.36;100.00
23616;BME280;11985;49.404;7.734;2023-01-25T05:38:10;98776.97;;;-0.42;100.00
23616;BME280;11985;49.404;7.734;2023-01-25T05:43:13;98782.25;;;-0.44;100.00
23616;BME280;11985;49.404;7.734;2023-01-25T05:48:14;98777.88;;;-0.43;100.00
23616;BME280;11985;49.404;7.734;2023-01-25T05:53:16;98775.38;;;-0.45;100.00
23616;BME280;11985;49.404;7.734;2023-01-25T05:58:19;98774.69;;;-0.34;100.00
23616;BME280;11985;49.404;7.734;2023-01-25T06:03:20;98776.38;;;-0.33;100.00
23616;BME280;11985;49.404;7.734;2023-01-25T06:08:22;98768.59;;;-0.33;100.00
23616;BME280;11985;49.404;7.734;2023-01-25T06:13:25;98760.09;;;-0.35;100.00
23616;BME280;11985;49.404;7.734;2023-01-25T06:18:30;98754.91;;;-0.35;100.00
23616;BME280;11985;49.404;7.734;2023-01-25T06:23:31;98755.66;;;-0.20;100.00
23616;BME280;11985;49.404;7.734;2023-01-25T06:28:36;98745.31;;;-0.08;100.00
23616;BME280;11985;49.404;7.734;2023-01-25T06:33:38;98746.44;;;-0.12;100.00
23616;BME280;11985;49.404;7.734;2023-01-25T06:38:40;98751.44;;;-0.21;100.00
23616;BME280;11985;49.404;7.734;2023-01-25T06:43:44;98752.25;;;-0.21;100.00
23616;BME280;11985;49.404;7.734;2023-01-25T06:48:46;98756.50;;;-0.20;100.00
23616;BME280;11985;49.404;7.734;2023-01-25T06:53:48;98760.84;;;-0.20;100.00
23616;BME280;11985;49.404;7.734;2023-01-25T06:58:51;98757.19;;;-0.31;100.00
23616;BME280;11985;49.404;7.734;2023-01-25T07:03:54;98757.31;;;-0.32;100.00
23616;BME280;11985;49.404;7.734;2023-01-25T07:09:01;98753.97;;;-0.34;100.00
23616;BME280;11985;49.404;7.734;2023-01-25T07:14:06;98754.31;;;-0.26;100.00
23616;BME280;11985;49.404;7.734;2023-01-25T07:19:10;98758.84;;;-0.30;100.00
23616;BME280;11985;49.404;7.734;2023-01-25T07:24:14;98768.69;;;-0.35;100.00
23616;BME280;11985;49.404;7.734;2023-01-25T07:29:17;98761.97;;;-0.37;100.00
23616;BME280;11985;49.404;7.734;2023-01-25T07:34:19;98754.72;;;-0.32;100.00
23616;BME280;11985;49.404;7.734;2023-01-25T07:39:20;98758.44;;;-0.36;100.00
23616;BME280;11985;49.404;7.734;2023-01-25T07:44:23;98762.34;;;-0.43;100.00
23616;BME280;11985;49.404;7.734;2023-01-25T07:49:25;98754.06;;;-0.48;100.00
23616;BME280;11985;49.404;7.734;2023-01-25T07:54:26;98758.72;;;-0.54;100.00
23616;BME280;11985;49.404;7.734;2023-01-25T07:59:29;98757.06;;;-0.55;100.00
23616;BME280;11985;49.404;7.734;2023-01-25T08:04:31;98749.06;;;-0.51;100.00
23616;BME280;11985;49.404;7.734;2023-01-25T08:09:33;98761.97;;;-0.37;100.00
23616;BME280;11985;49.404;7.734;2023-01-25T08:14:36;98754.09;;;-0.23;100.00
23616;BME280;11985;49.404;7.734;2023-01-25T08:19:38;98748.50;;;-0.17;100.00
23616;BME280;11985;49.404;7.734;2023-01-25T08:24:39;98752.25;;;-0.08;100.00
23616;BME280;11985;49.404;7.734;2023-01-25T08:29:42;98749.56;;;-0.07;100.00
23616;BME280;11985;49.404;7.734;2023-01-25T08:34:44;98747.06;;;-0.21;100.00
23616;BME280;11985;49.404;7.734;2023-01-25T08:39:46;98744.38;;;-0.32;100.00
23616;BME280;11985;49.404;7.734;2023-01-25T08:44:49;98742.38;;;-0.41;100.00
23616;BME280;11985;49.404;7.734;2023-01-25T08:49:50;98742.66;;;-0.46;100.00
23616;BME280;11985;49.404;7.734;2023-01-25T08:54:54;98735.94;;;-0.48;100.00
23616;BME280;11985;49.404;7.734;2023-01-25T08:59:57;98733.13;;;-0.58;100.00
23616;BME280;11985;49.404;7.734;2023-01-25T09:04:58;98736.81;;;-0.62;100.00
23616;BME280;11985;49.404;7.734;2023-01-25T09:10:00;98727.13;;;-0.59;100.00
23616;BME280;11985;49.404;7.734;2023-01-25T09:15:03;98728.38;;;-0.51;100.00
23616;BME280;11985;49.404;7.734;2023-01-25T09:20:06;98732.22;;;-0.44;100.00
23616;BME280;11985;49.404;7.734;2023-01-25T09:25:08;98727.19;;;-0.33;100.00
23616;BME280;11985;49.404;7.734;2023-01-25T09:30:12;98731.41;;;-0.32;100.00
23616;BME280;11985;49.404;7.734;2023-01-25T09:35:14;98720.72;;;-0.40;100.00
23616;BME280;11985;49.404;7.734;2023-01-25T09:40:19;98724.66;;;-0.47;100.00
23616;BME280;11985;49.404;7.734;2023-01-25T09:45:33;98718.63;;;-0.61;100.00
23616;BME280;11985;49.404;7.734;2023-01-25T09:50:36;98726.13;;;-0.43;100.00
23616;BME280;11985;49.404;7.734;2023-01-25T09:55:41;98727.19;;;-0.33;100.00
23616;BME280;11985;49.404;7.734;2023-01-25T10:00:45;98711.19;;;-0.40;100.00
23616;BME280;11985;49.404;7.734;2023-01-25T10:05:49;98711.19;;;-0.40;100.00
23616;BME280;11985;49.404;7.734;2023-01-25T10:10:58;98708.19;;;-0.34;100.00
23616;BME280;11985;49.404;7.734;2023-01-25T10:16:05;98710.78;;;-0.34;100.00
23616;BME280;11985;49.404;7.734;2023-01-25T10:21:15;98714.00;;;-0.30;100.00
23616;BME280;11985;49.404;7.734;2023-01-25T10:26:23;98707.38;;;-0.34;100.00
23616;BME280;11985;49.404;7.734;2023-01-25T10:31:32;98690.38;;;-0.51;100.00
23616;BME280;11985;49.404;7.734;2023-01-25T10:36:37;98689.41;;;-0.63;100.00
23616;BME280;11985;49.404;7.734;2023-01-25T10:41:41;98682.56;;;-0.76;100.00
23616;BME280;11985;49.404;7.734;2023-01-25T10:46:49;98670.34;;;-0.87;100.00
23616;BME280;11985;49.404;7.734;2023-01-25T10:51:52;98661.47;;;-0.83;100.00
23616;BME280;11985;49.404;7.734;2023-01-25T10:56:55;98656.50;;;-0.73;100.00
23616;BME280;11985;49.404;7.734;2023-01-25T11:07:38;98635.59;;;-0.58;100.00
23616;BME280;11985;49.404;7.734;2023-01-25T11:12:40;98627.31;;;-0.63;100.00
23616;BME280;11985;49.404;7.734;2023-01-25T11:17:43;98620.78;;;-0.68;100.00
23616;BME280;11985;49.404;7.734;2023-01-25T11:22:49;98612.63;;;-0.75;100.00
23616;BME280;11985;49.404;7.734;2023-01-25T11:28:00;98610.97;;;-0.76;100.00
23616;BME280;11985;49.404;7.734;2023-01-25T11:33:13;98614.69;;;-0.80;100.00
23616;BME280;11985;49.404;7.734;2023-01-25T11:38:18;98594.81;;;-0.80;100.00
23616;BME280;11985;49.404;7.734;2023-01-25T11:43:45;98581.28;;;-0.83;100.00
23616;BME280;11985;49.404;7.734;2023-01-25T11:54:41;98562.53;;;-0.61;100.00
23616;BME280;11985;49.404;7.734;2023-01-25T12:00:00;98555.72;;;-0.49;100.00
23616;BME280;11985;49.404;7.734;2023-01-25T12:05:20;98545.34;;;-0.75;100.00
23616;BME280;11985;49.404;7.734;2023-01-25T12:10:29;98531.09;;;-0.93;100.00
23616;BME280;11985;49.404;7.734;2023-01-25T12:15:56;98534.25;;;-1.02;100.00
23616;BME280;11985;49.404;7.734;2023-01-25T12:21:10;98510.34;;;-1.06;100.00
23616;BME280;11985;49.404;7.734;2023-01-25T12:26:21;98507.69;;;-1.04;100.00
23616;BME280;11985;49.404;7.734;2023-01-25T12:31:32;98489.59;;;-1.04;100.00
23616;BME280;11985;49.404;7.734;2023-01-25T12:36:41;98496.53;;;-0.92;100.00
23616;BME280;11985;49.404;7.734;2023-01-25T12:41:46;98493.09;;;-0.80;100.00
23616;BME280;11985;49.404;7.734;2023-01-25T12:46:54;98483.28;;;-0.75;100.00
23616;BME280;11985;49.404;7.734;2023-01-25T12:52:04;98475.69;;;-0.78;100.00
23616;BME280;11985;49.404;7.734;2023-01-25T12:57:14;98464.03;;;-0.71;100.00
23616;BME280;11985;49.404;7.734;2023-01-25T13:02:41;98450.56;;;-0.76;100.00
23616;BME280;11985;49.404;7.734;2023-01-25T13:07:52;98439.41;;;-0.76;100.00
23616;BME280;11985;49.404;7.734;2023-01-25T13:12:59;98432.84;;;-0.57;100.00
23616;BME280;11985;49.404;7.734;2023-01-25T13:18:36;98428.81;;;-0.61;100.00
23616;BME280;11985;49.404;7.734;2023-01-25T13:23:41;98431.19;;;-0.58;100.00
23616;BME280;11985;49.404;7.734;2023-01-25T13:28:50;98425.50;;;-0.50;100.00
23616;BME280;11985;49.404;7.734;2023-01-25T13:33:52;98419.47;;;-0.50;100.00
23616;BME280;11985;49.404;7.734;2023-01-25T13:38:55;98419.47;;;-0.50;100.00
23616;BME280;11985;49.404;7.734;2023-01-25T13:44:18;98404.50;;;-0.34;100.00
23616;BME280;11985;49.404;7.734;2023-01-25T13:49:23;98394.13;;;-0.21;100.00
23616;BME280;11985;49.404;7.734;2023-01-25T13:54:29;98381.00;;;-0.31;100.00
23616;BME280;11985;49.404;7.734;2023-01-25T13:59:30;98371.41;;;-0.42;100.00
23616;BME280;11985;49.404;7.734;2023-01-25T14:04:32;98377.22;;;-0.51;100.00
23616;BME280;11985;49.404;7.734;2023-01-25T14:09:40;98366.34;;;-0.43;100.00
23616;BME280;11985;49.404;7.734;2023-01-25T14:14:42;98360.69;;;-0.48;100.00
23616;BME280;11985;49.404;7.734;2023-01-25T14:19:50;98347.50;;;-0.45;100.00
23616;BME280;11985;49.404;7.734;2023-01-25T14:25:08;98355.13;;;-0.55;100.00
23616;BME280;11985;49.404;7.734;2023-01-25T14:30:19;98355.53;;;-0.61;100.00
23616;BME280;11985;49.404;7.734;2023-01-25T14:35:32;98342.31;;;-0.69;100.00
23616;BME280;11985;49.404;7.734;2023-01-25T14:40:35;98338.69;;;-0.67;100.00
23616;BME280;11985;49.404;7.734;2023-01-25T14:45:38;98338.72;;;-0.56;100.00
23616;BME280;11985;49.404;7.734;2023-01-25T14:50:40;98340.91;;;-0.49;100.00
23616;BME280;11985;49.404;7.734;2023-01-25T14:55:44;98332.91;;;-0.46;100.00
23616;BME280;11985;49.404;7.734;2023-01-25T15:00:51;98332.16;;;-0.60;100.00
23616;BME280;11985;49.404;7.734;2023-01-25T15:05:53;98318.03;;;-0.56;100.00
23616;BME280;11985;49.404;7.734;2023-01-25T15:10:58;98303.84;;;-0.50;100.00
23616;BME280;11985;49.404;7.734;2023-01-25T15:16:31;98293.38;;;-0.48;100.00
23616;BME280;11985;49.404;7.734;2023-01-25T15:21:33;98280.00;;;-0.42;100.00
23616;BME280;11985;49.404;7.734;2023-01-25T15:26:36;98282.59;;;-0.42;100.00
23616;BME280;11985;49.404;7.734;2023-01-25T15:31:37;98283.75;;;-0.70;100.00
23616;BME280;11985;49.404;7.734;2023-01-25T15:36:39;98274.88;;;-0.79;100.00
23616;BME280;11985;49.404;7.734;2023-01-25T15:41:42;98274.44;;;-0.73;100.00
23616;BME280;11985;49.404;7.734;2023-01-25T15:46:47;98257.94;;;-0.59;100.00
23616;BME280;11985;49.404;7.734;2023-01-25T15:51:50;98248.25;;;-0.44;100.00
23616;BME280;11985;49.404;7.734;2023-01-25T15:56:54;98241.84;;;-0.51;100.00
23616;BME280;11985;49.404;7.734;2023-01-25T16:01:57;98251.69;;;-0.57;100.00
23616;BME280;11985;49.404;7.734;2023-01-25T16:06:58;98251.56;;;-0.66;100.00
23616;BME280;11985;49.404;7.734;2023-01-25T16:12:02;98241.31;;;-0.68;100.00
23616;BME280;11985;49.404;7.734;2023-01-25T16:17:04;98240.47;;;-0.68;100.00
23616;BME280;11985;49.404;7.734;2023-01-25T16:22:06;98247.75;;;-0.73;100.00
23616;BME280;11985;49.404;7.734;2023-01-25T16:27:14;98242.81;;;-0.76;100.00
23616;BME280;11985;49.404;7.734;2023-01-25T16:32:19;98245.78;;;-0.94;100.00
23616;BME280;11985;49.404;7.734;2023-01-25T16:37:21;98260.41;;;-0.82;100.00
23616;BME280;11985;49.404;7.734;2023-01-25T16:42:24;98248.81;;;-0.76;100.00
23616;BME280;11985;49.404;7.734;2023-01-25T16:47:25;98243.47;;;-0.50;100.00
23616;BME280;11985;49.404;7.734;2023-01-25T16:52:27;98240.34;;;-0.43;100.00
23616;BME280;11985;49.404;7.734;2023-01-25T16:57:30;98235.19;;;-0.43;100.00
23616;BME280;11985;49.404;7.734;2023-01-25T17:02:31;98232.56;;;-0.54;100.00
23616;BME280;11985;49.404;7.734;2023-01-25T17:07:33;98237.13;;;-0.58;100.00
23616;BME280;11985;49.404;7.734;2023-01-25T17:12:37;98225.56;;;-0.65;100.00
23616;BME280;11985;49.404;7.734;2023-01-25T17:17:38;98230.19;;;-0.81;100.00
23616;BME280;11985;49.404;7.734;2023-01-25T17:22:40;98225.47;;;-0.87;100.00
23616;BME280;11985;49.404;7.734;2023-01-25T17:27:44;98219.63;;;-0.78;100.00
23616;BME280;11985;49.404;7.734;2023-01-25T17:32:46;98228.31;;;-0.79;100.00
23616;BME280;11985;49.404;7.734;2023-01-25T17:37:48;98210.72;;;-0.74;100.00
23616;BME280;11985;49.404;7.734;2023-01-25T17:42:51;98218.13;;;-0.69;100.00
23616;BME280;11985;49.404;7.734;2023-01-25T17:47:52;98212.88;;;-0.57;100.00
23616;BME280;11985;49.404;7.734;2023-01-25T17:52:54;98208.78;;;-0.59;100.00
23616;BME280;11985;49.404;7.734;2023-01-25T17:57:57;98205.81;;;-0.66;100.00
23616;BME280;11985;49.404;7.734;2023-01-25T18:02:59;98193.78;;;-0.67;100.00
23616;BME280;11985;49.404;7.734;2023-01-25T18:08:00;98183.59;;;-0.57;100.00
23616;BME280;11985;49.404;7.734;2023-01-25T18:13:03;98187.00;;;-0.57;100.00
23616;BME280;11985;49.404;7.734;2023-01-25T18:18:05;98179.50;;;-0.60;100.00
23616;BME280;11985;49.404;7.734;2023-01-25T18:23:07;98174.53;;;-0.63;100.00
23616;BME280;11985;49.404;7.734;2023-01-25T18:28:12;98168.66;;;-0.65;100.00
23616;BME280;11985;49.404;7.734;2023-01-25T18:33:14;98170.41;;;-0.65;100.00
23616;BME280;11985;49.404;7.734;2023-01-25T18:38:15;98167.19;;;-0.80;100.00
23616;BME280;11985;49.404;7.734;2023-01-25T18:43:18;98154.81;;;-0.88;100.00
23616;BME280;11985;49.404;7.734;2023-01-25T18:48:20;98153.50;;;-0.93;100.00
23616;BME280;11985;49.404;7.734;2023-01-25T18:53:30;98154.22;;;-0.91;100.00
23616;BME280;11985;49.404;7.734;2023-01-25T18:58:34;98145.47;;;-1.01;100.00
23616;BME280;11985;49.404;7.734;2023-01-25T19:03:36;98146.28;;;-1.01;100.00
23616;BME280;11985;49.404;7.734;2023-01-25T19:08:37;98141.94;;;-1.00;100.00
23616;BME280;11985;49.404;7.734;2023-01-25T19:13:43;98135.91;;;-0.88;100.00
23616;BME280;11985;49.404;7.734;2023-01-25T19:18:46;98128.59;;;-0.94;100.00
23616;BME280;11985;49.404;7.734;2023-01-25T19:23:50;98133.38;;;-1.01;100.00
23616;BME280;11985;49.404;7.734;2023-01-25T19:28:53;98131.19;;;-0.94;100.00
23616;BME280;11985;49.404;7.734;2023-01-25T19:33:57;98121.41;;;-0.91;100.00
23616;BME280;11985;49.404;7.734;2023-01-25T19:38:59;98112.63;;;-0.88;100.00
23616;BME280;11985;49.404;7.734;2023-01-25T19:44:04;98103.13;;;-0.76;100.00
23616;BME280;11985;49.404;7.734;2023-01-25T19:49:06;98099.75;;;-0.66;100.00
23616;BME280;11985;49.404;7.734;2023-01-25T19:54:10;98097.41;;;-0.58;100.00
23616;BME280;11985;49.404;7.734;2023-01-25T19:59:15;98095.50;;;-0.56;100.00
23616;BME280;11985;49.404;7.734;2023-01-25T20:04:18;98087.75;;;-0.56;100.00
23616;BME280;11985;49.404;7.734;2023-01-25T20:09:20;98079.97;;;-0.67;100.00
23616;BME280;11985;49.404;7.734;2023-01-25T20:14:28;98078.31;;;-0.79;100.00
23616;BME280;11985;49.404;7.734;2023-01-25T20:19:29;98076.63;;;-0.91;100.00
23616;BME280;11985;49.404;7.734;2023-01-25T20:24:32;98057.09;;;-0.95;100.00
23616;BME280;11985;49.404;7.734;2023-01-25T20:29:35;98055.47;;;-0.96;100.00
23616;BME280;11985;49.404;7.734;2023-01-25T20:34:36;98061.22;;;-1.04;100.00
23616;BME280;11985;49.404;7.734;2023-01-25T20:39:38;98059.56;;;-1.05;100.00
23616;BME280;11985;49.404;7.734;2023-01-25T20:44:41;98060.59;;;-1.08;100.00
23616;BME280;11985;49.404;7.734;2023-01-25T20:49:43;98063.88;;;-1.06;100.00
23616;BME280;11985;49.404;7.734;2023-01-25T20:54:44;98054.97;;;-1.01;100.00
23616;BME280;11985;49.404;7.734;2023-01-25T20:59:47;98051.94;;;-0.95;100.00
23616;BME280;11985;49.404;7.734;2023-01-25T21:04:49;98054.97;;;-1.01;100.00
23616;BME280;11985;49.404;7.734;2023-01-25T21:09:50;98058.47;;;-1.14;100.00
23616;BME280;11985;49.404;7.734;2023-01-25T21:14:54;98049.53;;;-1.21;100.00
23616;BME280;11985;49.404;7.734;2023-01-25T21:19:55;98043.63;;;-1.23;100.00
23616;BME280;11985;49.404;7.734;2023-01-25T21:24:58;98030.03;;;-1.14;100.00
23616;BME280;11985;49.404;7.734;2023-01-25T21:30:01;98032.09;;;-1.30;100.00
23616;BME280;11985;49.404;7.734;2023-01-25T21:35:03;98027.47;;;-1.14;100.00
23616;BME280;11985;49.404;7.734;2023-01-25T21:40:06;98027.69;;;-1.06;100.00
23616;BME280;11985;49.404;7.734;2023-01-25T21:45:10;98023.22;;;-1.15;100.00
23616;BME280;11985;49.404;7.734;2023-01-25T21:50:29;98012.41;;;-1.20;100.00
23616;BME280;11985;49.404;7.734;2023-01-25T21:55:54;98010.75;;;-1.21;100.00
23616;BME280;11985;49.404;7.734;2023-01-25T22:01:00;98003.50;;;-1.16;100.00
23616;BME280;11985;49.404;7.734;2023-01-25T22:06:03;97993.31;;;-1.41;100.00
23616;BME280;11985;49.404;7.734;2023-01-25T22:11:06;97993.97;;;-1.50;100.00
23616;BME280;11985;49.404;7.734;2023-01-25T22:16:11;97983.44;;;-1.47;100.00
23616;BME280;11985;49.404;7.734;2023-01-25T22:21:16;97977.44;;;-1.48;100.00
23616;BME280;11985;49.404;7.734;2023-01-25T22:26:19;97969.00;;;-1.74;100.00
23616;BME280;11985;49.404;7.734;2023-01-25T22:31:23;97966.72;;;-1.66;100.00
23616;BME280;11985;49.404;7.734;2023-01-25T22:36:26;97951.41;;;-1.69;100.00
23616;BME280;11985;49.404;7.734;2023-01-25T22:41:31;97953.25;;;-1.82;100.00
23616;BME280;11985;49.404;7.734;2023-01-25T22:46:34;97948.69;;;-1.78;100.00
23616;BME280;11985;49.404;7.734;2023-01-25T22:51:36;97942.84;;;-1.69;100.00
23616;BME280;11985;49.404;7.734;2023-01-25T22:56:38;97934.31;;;-1.58;100.00
23616;BME280;11985;49.404;7.734;2023-01-25T23:01:41;97915.91;;;-1.54;100.00
23616;BME280;11985;49.404;7.734;2023-01-25T23:06:42;97905.41;;;-1.64;100.00
23616;BME280;11985;49.404;7.734;2023-01-25T23:11:44;97903.03;;;-1.67;100.00
23616;BME280;11985;49.404;7.734;2023-01-25T23:16:47;97900.91;;;-1.73;100.00
23616;BME280;11985;49.404;7.734;2023-01-25T23:21:48;97889.41;;;-1.80;100.00
23616;BME280;11985;49.404;7.734;2023-01-25T23:26:50;97897.06;;;-1.67;100.00
23616;BME280;11985;49.404;7.734;2023-01-25T23:31:53;97899.78;;;-1.57;100.00
23616;BME280;11985;49.404;7.734;2023-01-25T23:36:54;97886.19;;;-1.60;100.00
23616;BME280;11985;49.404;7.734;2023-01-25T23:41:56;97872.91;;;-1.66;100.00
23616;BME280;11985;49.404;7.734;2023-01-25T23:46:59;97868.66;;;-1.67;100.00
23616;BME280;11985;49.404;7.734;2023-01-25T23:52:00;97868.06;;;-1.71;100.00
23616;BME280;11985;49.404;7.734;2023-01-25T23:57:02;97863.34;;;-1.88;100.00
